Terminal Aerodrome Forecast
Issued by NWS

Home | Current Version | Previous Version | Text Only | Print | Product List | Glossary Off
Versions: 1 2 3 4 5 6 7 8 9 10 11 12 13 14 15 16 17 18 19 20 21 22 23 24 25 26 27 28 29 30 31 32

000
FTUS43 KLOT 190300 AAA
TAFORD
TAF AMD
KORD 190304Z 1903/2006 32005KT P6SM OVC025
     FM190400 32003KT P6SM SCT020 OVC030
     FM191600 34003KT P6SM BKN030
     FM191900 31003KT P6SM OVC025
     FM200300 VRB04KT P6SM BKN030=

USA.gov is the U.S. government's official web portal to all federal, state and local government web resources and services.